Time;durP1;ratioP1;P1;durP2;ratioP2;P2;SDS_P1;SDS_P2;PMS_P1;PMS_P2;Temp;Humidity;BMP_temperature;BMP_pressure;BME280_temperature;BME280_humidity;BME280_pressure;Samples;Min_cycle;Max_cycle;Signal;HPM_P1;HPM_P2
2023/05/25 00:01:47;;;;;;;9.10;6.00;;;;;;;14.91;100.00;99967.15;106845;1278;22861;-38
2023/05/25 00:04:18;;;;;;;8.10;5.40;;;;;;;14.92;100.00;99970.28;107285;1278;22500;-38
2023/05/25 00:06:46;;;;;;;8.10;5.70;;;;;;;14.91;100.00;99974.70;106962;1278;23858;-44
2023/05/25 00:09:14;;;;;;;7.80;6.60;;;;;;;14.90;100.00;99972.44;106831;1278;24166;-43
2023/05/25 00:11:41;;;;;;;6.90;5.60;;;;;;;14.91;100.00;99976.64;106845;1278;22509;-42
2023/05/25 00:14:09;;;;;;;8.10;5.50;;;;;;;14.93;100.00;99984.33;107369;1278;22532;-39
2023/05/25 00:16:39;;;;;;;7.70;5.50;;;;;;;14.92;100.00;99988.04;106787;1278;22549;-38
2023/05/25 00:19:09;;;;;;;5.40;4.70;;;;;;;14.92;100.00;99993.82;106935;1278;22579;-43
2023/05/25 00:21:37;;;;;;;9.80;7.00;;;;;;;14.92;100.00;99989.98;107061;1278;24245;-39
2023/05/25 00:24:05;;;;;;;7.20;5.70;;;;;;;14.91;100.00;99986.65;106952;1278;22651;-43
2023/05/25 00:26:34;;;;;;;9.20;6.20;;;;;;;14.93;100.00;99982.39;106768;1278;23913;-42
2023/05/25 00:29:05;;;;;;;7.40;5.80;;;;;;;14.96;100.00;99981.27;107424;1278;25454;-42
2023/05/25 00:31:35;;;;;;;9.20;6.30;;;;;;;15.00;100.00;99989.94;106920;1278;22568;-38
2023/05/25 00:34:03;;;;;;;10.30;6.30;;;;;;;15.00;100.00;99990.98;107162;1278;24588;-39
2023/05/25 00:36:30;;;;;;;7.50;6.00;;;;;;;14.98;100.00;99999.30;107116;1278;24212;-43
2023/05/25 00:38:58;;;;;;;7.80;5.40;;;;;;;14.94;100.00;99999.20;106741;1278;24888;-39
2023/05/25 00:41:26;;;;;;;7.00;5.90;;;;;;;14.89;100.00;100001.42;106860;1278;22497;-45
2023/05/25 00:43:55;;;;;;;7.50;6.00;;;;;;;14.84;100.00;100003.29;106884;1278;23324;-38
2023/05/25 00:46:23;;;;;;;8.60;5.90;;;;;;;14.80;100.00;100006.02;107266;1278;25415;-42
2023/05/25 00:48:52;;;;;;;7.30;5.80;;;;;;;14.76;100.00;100005.40;106544;1278;25287;-39
2023/05/25 00:51:20;;;;;;;5.70;5.00;;;;;;;14.72;100.00;100004.45;107089;1278;22525;-38
2023/05/25 00:53:49;;;;;;;6.60;5.50;;;;;;;14.65;100.00;100006.34;106930;1278;22537;-43
2023/05/25 00:56:21;;;;;;;8.60;5.60;;;;;;;14.61;100.00;99999.41;107341;1278;22536;-39
2023/05/25 00:58:51;;;;;;;7.10;4.80;;;;;;;14.61;100.00;100001.51;107320;1278;22515;-38
2023/05/25 01:01:20;;;;;;;9.50;5.70;;;;;;;14.59;100.00;100004.35;106963;1278;24252;-37
2023/05/25 01:03:52;;;;;;;6.90;6.20;;;;;;;14.54;100.00;100005.86;106920;1278;22687;-42
2023/05/25 01:06:21;;;;;;;10.30;6.60;;;;;;;14.49;100.00;100008.77;106802;1278;22534;-43
2023/05/25 01:08:51;;;;;;;8.60;6.30;;;;;;;14.43;100.00;100009.58;106880;1278;25400;-43
2023/05/25 01:11:22;;;;;;;8.20;5.70;;;;;;;14.36;100.00;100013.55;106780;1278;24159;-39
2023/05/25 01:13:52;;;;;;;9.20;6.10;;;;;;;14.30;100.00;100007.90;107245;1278;24335;-39
2023/05/25 01:16:19;;;;;;;8.70;6.80;;;;;;;14.25;100.00;100010.10;106700;1278;22786;-38
2023/05/25 01:18:47;;;;;;;8.20;6.00;;;;;;;14.21;100.00;100015.10;107363;1278;24203;-39
2023/05/25 01:21:28;;;;;;;8.90;6.10;;;;;;;14.18;100.00;100019.02;106997;1278;22530;-39
2023/05/25 01:24:10;;;;;;;7.10;6.40;;;;;;;14.14;100.00;100018.90;107193;1278;25278;-39
2023/05/25 01:26:52;;;;;;;10.10;6.50;;;;;;;14.13;100.00;100020.33;107027;1278;24248;-40
2023/05/25 01:29:20;;;;;;;7.50;6.20;;;;;;;14.16;100.00;100019.94;106944;1278;23915;-43
2023/05/25 01:31:48;;;;;;;7.50;6.70;;;;;;;14.17;100.00;100015.19;107360;1278;22517;-44
2023/05/25 01:34:16;;;;;;;13.20;6.40;;;;;;;14.17;100.00;100012.55;106910;1278;22526;-38
2023/05/25 01:36:43;;;;;;;14.40;5.90;;;;;;;14.18;100.00;100009.17;106954;1278;22509;-38
2023/05/25 01:39:11;;;;;;;7.20;6.40;;;;;;;14.21;100.00;100007.73;106690;1278;22657;-45
2023/05/25 01:41:39;;;;;;;12.70;6.60;;;;;;;14.23;100.00;100004.35;106778;1278;26482;-42
2023/05/25 01:44:07;;;;;;;12.80;6.50;;;;;;;14.26;100.00;100003.06;107071;1278;22519;-38
2023/05/25 01:46:38;;;;;;;8.80;6.40;;;;;;;14.30;100.00;100006.14;106848;1278;22512;-42
2023/05/25 01:49:37;;;;;;;11.60;6.40;;;;;;;14.30;100.00;100005.60;107319;1278;22530;-39
2023/05/25 01:52:14;;;;;;;9.10;6.20;;;;;;;14.32;100.00;100003.30;107010;1278;22212;-38
2023/05/25 01:54:46;;;;;;;7.40;6.10;;;;;;;14.33;100.00;100004.70;106829;1259;25572;-42
2023/05/25 01:57:14;;;;;;;7.80;6.00;;;;;;;14.32;100.00;100006.27;106844;1278;22525;-42
2023/05/25 01:59:43;;;;;;;7.00;6.30;;;;;;;14.28;100.00;100005.49;106701;1278;25401;-43
2023/05/25 02:02:15;;;;;;;6.60;5.90;;;;;;;14.23;100.00;100004.55;106932;1278;22533;-43
2023/05/25 02:04:43;;;;;;;7.80;6.20;;;;;;;14.19;100.00;99998.29;106928;1278;22536;-43
2023/05/25 02:07:10;;;;;;;8.30;5.90;;;;;;;14.20;100.00;99994.23;107094;1278;22522;-40
2023/05/25 02:09:38;;;;;;;7.80;6.70;;;;;;;14.23;100.00;99993.31;107018;1278;22605;-42
2023/05/25 02:12:06;;;;;;;9.60;6.60;;;;;;;14.26;100.00;99998.52;106684;1266;24212;-42
2023/05/25 02:14:34;;;;;;;9.70;6.00;;;;;;;14.26;100.00;99997.28;106845;1278;25424;-39
2023/05/25 02:17:02;;;;;;;10.90;6.00;;;;;;;14.28;100.00;99999.54;106860;1278;22999;-39
2023/05/25 02:19:30;;;;;;;9.20;7.40;;;;;;;14.30;100.00;99995.28;107191;1278;22524;-38
2023/05/25 02:21:58;;;;;;;8.70;6.20;;;;;;;14.32;100.00;99999.61;106798;1278;22809;-45
2023/05/25 02:24:26;;;;;;;14.30;6.40;;;;;;;14.35;100.00;100003.24;107311;1278;26478;-41
2023/05/25 02:26:53;;;;;;;12.00;6.70;;;;;;;14.38;100.00;100006.68;106807;1278;22527;-44
2023/05/25 02:29:21;;;;;;;9.30;6.30;;;;;;;14.42;100.00;99996.96;106930;1278;23341;-45
2023/05/25 02:31:49;;;;;;;10.00;6.50;;;;;;;14.43;100.00;99996.77;107005;1278;25849;-44
2023/05/25 02:34:17;;;;;;;7.70;6.60;;;;;;;14.44;100.00;100001.14;107066;1278;24238;-39
2023/05/25 02:36:45;;;;;;;8.00;5.60;;;;;;;14.45;100.00;99999.73;106943;1278;25418;-43
2023/05/25 02:39:13;;;;;;;8.80;6.10;;;;;;;14.44;100.00;99996.92;106933;1267;22530;-43
2023/05/25 02:41:42;;;;;;;9.60;6.80;;;;;;;14.39;100.00;99998.25;107338;1278;25326;-44
2023/05/25 02:44:09;;;;;;;11.60;6.70;;;;;;;14.36;100.00;99993.39;106645;1278;22538;-45
2023/05/25 02:46:37;;;;;;;7.80;6.30;;;;;;;14.37;100.00;99997.41;106965;1278;24293;-38
2023/05/25 02:49:05;;;;;;;8.40;6.60;;;;;;;14.39;100.00;100002.30;107181;1278;22532;-38
2023/05/25 02:51:34;;;;;;;9.70;6.60;;;;;;;14.40;100.00;100003.33;107017;1278;22536;-39
2023/05/25 02:54:02;;;;;;;9.60;6.80;;;;;;;14.43;100.00;100000.27;107093;1278;22523;-40
2023/05/25 02:56:30;;;;;;;11.20;6.30;;;;;;;14.44;100.00;100002.71;107020;1278;23186;-42
2023/05/25 02:58:58;;;;;;;7.70;6.40;;;;;;;14.45;100.00;100004.45;106974;1278;22527;-38
2023/05/25 03:01:30;;;;;;;6.60;5.90;;;;;;;14.45;100.00;100008.15;107273;1278;25429;-43
2023/05/25 03:03:59;;;;;;;12.10;7.00;;;;;;;14.45;100.00;100001.66;108696;1278;23903;-40
2023/05/25 03:06:30;;;;;;;15.30;7.40;;;;;;;14.46;100.00;100008.12;106709;1278;24274;-37
2023/05/25 03:09:03;;;;;;;11.90;7.20;;;;;;;14.46;100.00;100007.41;106999;1278;22540;-43
2023/05/25 03:11:31;;;;;;;16.00;6.30;;;;;;;14.47;100.00;100009.52;106966;1278;22526;-39
2023/05/25 03:13:59;;;;;;;9.50;7.10;;;;;;;14.48;100.00;100007.92;107013;1278;22510;-40
2023/05/25 03:16:28;;;;;;;9.90;7.00;;;;;;;14.53;100.00;100007.13;106810;1278;22519;-42
2023/05/25 03:18:57;;;;;;;9.80;7.00;;;;;;;14.61;100.00;100011.70;107087;1278;22520;-39
2023/05/25 03:21:26;;;;;;;9.20;6.80;;;;;;;14.68;100.00;100007.70;106960;1278;22544;-43
2023/05/25 03:23:54;;;;;;;8.30;6.60;;;;;;;14.78;100.00;100016.60;107211;1278;22547;-43
2023/05/25 03:26:21;;;;;;;8.90;6.90;;;;;;;14.87;100.00;100020.79;107096;1278;25551;-43
2023/05/25 03:28:51;;;;;;;8.20;6.80;;;;;;;14.96;100.00;100018.84;107013;1278;25498;-43
2023/05/25 03:31:19;;;;;;;10.10;7.90;;;;;;;15.04;100.00;100018.83;107320;1278;22531;-42
2023/05/25 03:33:47;;;;;;;10.30;7.80;;;;;;;15.09;100.00;100023.30;107125;1278;22951;-43
2023/05/25 03:36:16;;;;;;;9.50;7.00;;;;;;;15.10;100.00;100026.26;106681;1278;22545;-44
2023/05/25 03:38:44;;;;;;;9.60;7.80;;;;;;;15.13;100.00;100024.78;107015;1278;22558;-38
2023/05/25 03:41:12;;;;;;;12.60;7.50;;;;;;;15.21;100.00;100022.83;106788;1278;24194;-43
2023/05/25 03:43:40;;;;;;;13.00;7.60;;;;;;;15.32;100.00;100020.81;107014;1278;22526;-43
2023/05/25 03:46:10;;;;;;;11.60;7.20;;;;;;;15.43;100.00;100019.67;106968;1278;22535;-39
2023/05/25 03:48:38;;;;;;;9.00;7.30;;;;;;;15.50;100.00;100016.52;106805;1278;22527;-38
2023/05/25 03:51:05;;;;;;;14.80;8.70;;;;;;;15.54;100.00;100016.95;106663;1278;24167;-44
2023/05/25 03:53:33;;;;;;;14.00;7.40;;;;;;;15.60;100.00;100022.97;107093;1278;22646;-43
2023/05/25 03:56:01;;;;;;;10.90;6.60;;;;;;;15.66;100.00;100020.73;107067;1278;25420;-44
2023/05/25 03:58:28;;;;;;;11.80;7.70;;;;;;;15.73;100.00;100017.39;107074;1278;22527;-39
2023/05/25 04:00:56;;;;;;;13.20;8.30;;;;;;;15.80;100.00;100016.33;106928;1278;25281;-44
2023/05/25 04:03:24;;;;;;;10.10;7.20;;;;;;;15.89;100.00;100016.09;107187;1278;22524;-39
2023/05/25 04:05:51;;;;;;;12.90;8.00;;;;;;;15.98;100.00;100016.73;106997;1278;22552;-43
2023/05/25 04:08:21;;;;;;;10.10;8.10;;;;;;;16.07;100.00;100017.19;107175;1278;25230;-39
2023/05/25 04:10:49;;;;;;;11.20;8.20;;;;;;;16.17;100.00;100019.92;107067;1278;25391;-44
2023/05/25 04:13:16;;;;;;;9.20;7.90;;;;;;;16.26;100.00;100020.20;106761;1278;22527;-38
2023/05/25 04:15:44;;;;;;;13.50;8.40;;;;;;;16.35;100.00;100019.95;107009;1278;25446;-40
2023/05/25 04:18:17;;;;;;;13.80;7.60;;;;;;;16.45;100.00;100017.39;106972;1278;22541;-42
2023/05/25 04:20:47;;;;;;;13.40;8.80;;;;;;;16.55;100.00;100018.85;106654;1280;22603;-39
2023/05/25 04:23:16;;;;;;;9.50;7.80;;;;;;;16.64;100.00;100019.30;108871;1280;22535;-38
2023/05/25 04:25:44;;;;;;;11.70;8.60;;;;;;;16.73;100.00;100018.67;108410;1280;22611;-39
2023/05/25 04:28:13;;;;;;;12.00;8.30;;;;;;;16.84;100.00;100020.85;106987;1280;24304;-38
2023/05/25 04:30:55;;;;;;;27.40;18.20;;;;;;;16.95;100.00;100019.09;106779;1280;25207;-45
2023/05/25 04:33:46;;;;;;;65.20;38.20;;;;;;;17.09;100.00;100016.73;107019;1279;25272;-44
2023/05/25 04:36:24;;;;;;;34.00;16.80;;;;;;;17.24;100.00;100015.89;107293;1279;24220;-43
2023/05/25 04:38:54;;;;;;;20.70;12.20;;;;;;;17.36;100.00;100019.73;107892;1279;25281;-43
2023/05/25 04:41:24;;;;;;;37.50;19.50;;;;;;;17.45;100.00;100021.95;107487;1279;22312;-44
2023/05/25 04:43:56;;;;;;;;;;;;;;;17.55;100.00;100020.73;110004;1279;23234;-44
2023/05/25 04:46:43;;;;;;;18.20;9.40;;;;;;;17.66;100.00;100015.07;109911;1278;22172;-40
2023/05/25 04:49:17;;;;;;;13.30;9.10;;;;;;;17.76;100.00;100016.71;109564;1279;22390;-44
2023/05/25 04:51:45;;;;;;;15.10;9.60;;;;;;;17.87;100.00;100017.73;110028;1279;22387;-44
2023/05/25 04:54:13;;;;;;;26.50;13.60;;;;;;;17.98;100.00;100017.89;109894;1279;22356;-44
2023/05/25 04:56:41;;;;;;;20.70;12.20;;;;;;;18.12;100.00;100022.14;109825;1276;22285;-44
2023/05/25 04:59:09;;;;;;;15.00;10.30;;;;;;;18.30;100.00;100019.05;108809;1256;23892;-37
2023/05/25 05:01:40;;;;;;;12.50;8.70;;;;;;;18.51;100.00;100022.85;109852;1279;22797;-38
2023/05/25 05:04:11;;;;;;;16.30;9.40;;;;;;;18.73;100.00;100025.26;109822;1275;22297;-43
2023/05/25 05:06:39;;;;;;;15.10;9.20;;;;;;;18.86;100.00;100024.26;109875;1275;23181;-43
2023/05/25 05:09:10;;;;;;;21.50;9.10;;;;;;;18.97;100.00;100020.82;109793;1272;22447;-43
2023/05/25 05:11:38;;;;;;;14.50;8.80;;;;;;;19.12;100.00;100023.41;109874;1273;22378;-39
2023/05/25 05:14:06;;;;;;;15.40;8.00;;;;;;;19.23;100.00;100022.08;109799;1272;22321;-39
2023/05/25 05:16:36;;;;;;;12.00;7.70;;;;;;;19.36;100.00;100024.05;109742;1272;22399;-40
2023/05/25 05:19:04;;;;;;;9.30;6.10;;;;;;;19.45;100.00;100026.85;109781;1272;22638;-40
2023/05/25 05:21:32;;;;;;;18.50;9.20;;;;;;;19.52;100.00;100029.20;109625;1275;22326;-39
2023/05/25 05:24:01;;;;;;;18.20;8.80;;;;;;;19.60;100.00;100028.56;109643;1275;23126;-39
2023/05/25 05:26:28;;;;;;;13.10;6.60;;;;;;;19.68;100.00;100031.58;109561;1275;146539;-39
2023/05/25 05:28:58;;;;;;;8.20;5.70;;;;;;;19.86;100.00;100033.32;109568;1275;22389;-44
2023/05/25 05:31:28;;;;;;;9.30;6.80;;;;;;;20.05;100.00;100036.03;109333;1272;22351;-38
2023/05/25 05:33:56;;;;;;;12.40;6.00;;;;;;;20.23;100.00;100036.13;109496;1273;22670;-39
2023/05/25 05:36:24;;;;;;;7.00;5.70;;;;;;;20.36;100.00;100041.92;108829;1275;23025;-44
2023/05/25 05:38:52;;;;;;;9.80;6.20;;;;;;;20.43;99.98;100039.52;108281;1273;23902;-43
2023/05/25 05:41:56;;;;;;;8.90;5.50;;;;;;;20.54;99.30;100041.55;108807;1272;22454;-37
2023/05/25 05:53:50;;;;;;;8.70;5.10;;;;;;;21.08;91.99;100041.68;108970;1272;22398;-45
2023/05/25 05:57:40;;;;;;;6.00;4.60;;;;;;;21.01;91.44;100046.47;108604;1273;25179;-45
2023/05/25 06:08:27;;;;;;;12.50;4.50;;;;;;;21.12;89.97;100039.92;108846;1272;23094;-45
2023/05/25 06:15:23;;;;;;;8.20;4.60;;;;;;;21.25;87.47;100038.23;109260;1272;22192;-39
2023/05/25 06:18:24;;;;;;;9.80;4.20;;;;;;;21.28;87.53;100032.61;109360;1276;23685;-39
2023/05/25 06:21:41;;;;;;;8.30;4.60;;;;;;;21.32;86.90;100032.09;109680;1273;22274;-40
2023/05/25 06:25:05;;;;;;;9.40;3.70;;;;;;;21.29;87.35;100034.17;109685;1275;23007;-46
2023/05/25 06:28:22;;;;;;;7.70;4.00;;;;;;;21.41;87.21;100033.23;109828;1272;23124;-46
2023/05/25 06:31:50;;;;;;;9.40;3.80;;;;;;;21.66;85.92;100033.78;109821;1258;22267;-45
2023/05/25 06:34:24;;;;;;;9.00;4.40;;;;;;;21.72;84.17;100033.98;109035;1273;23104;-40
2023/05/25 06:37:54;;;;;;;6.00;4.50;;;;;;;21.81;84.44;100037.11;109126;1272;22483;-39
2023/05/25 06:44:23;;;;;;;6.60;4.30;;;;;;;22.12;82.71;100032.52;109786;1264;22393;-39
2023/05/25 06:47:06;;;;;;;5.90;3.70;;;;;;;22.22;81.59;100037.31;109879;1278;22234;-40
2023/05/25 06:49:33;;;;;;;7.10;3.70;;;;;;;22.25;80.82;100039.11;109946;1276;22962;-43
2023/05/25 06:52:06;;;;;;;8.70;4.10;;;;;;;22.30;80.36;100037.96;109531;1276;22291;-45
2023/05/25 06:54:38;;;;;;;9.50;3.70;;;;;;;22.40;79.16;100038.71;109778;1263;23904;-45
2023/05/25 06:57:05;;;;;;;10.10;3.70;;;;;;;22.54;77.64;100040.95;109799;1277;22375;-44
2023/05/25 06:59:33;;;;;;;5.30;3.70;;;;;;;22.73;76.86;100037.44;109773;1272;22343;-44
2023/05/25 07:02:01;;;;;;;8.30;4.20;;;;;;;22.91;75.76;100036.31;109404;1275;22342;-40
2023/05/25 07:04:28;;;;;;;7.10;3.60;;;;;;;23.07;75.67;100032.39;109563;1276;22773;-39
2023/05/25 07:07:03;;;;;;;6.60;3.70;;;;;;;23.18;74.48;100036.75;109484;1279;22416;-40
2023/05/25 07:09:37;;;;;;;8.30;4.50;;;;;;;23.15;73.50;100036.59;109346;1272;22821;-44
2023/05/25 07:12:22;;;;;;;7.00;4.20;;;;;;;23.05;73.98;100035.54;109589;1275;22340;-40
2023/05/25 07:20:03;;;;;;;8.40;4.40;;;;;;;22.82;75.27;100044.60;109856;1273;22232;-40
2023/05/25 07:22:52;;;;;;;10.00;3.80;;;;;;;22.84;75.37;100045.03;109400;1273;22421;-40
2023/05/25 07:25:43;;;;;;;7.00;3.90;;;;;;;22.99;74.80;100043.73;109649;1275;22748;-45
2023/05/25 07:28:33;;;;;;;10.40;4.10;;;;;;;23.09;74.45;100046.50;109643;1272;22249;-40
2023/05/25 07:31:03;;;;;;;7.70;3.20;;;;;;;23.12;73.65;100046.56;109232;1272;22668;-45
2023/05/25 07:36:54;;;;;;;5.00;3.80;;;;;;;23.27;73.20;100047.09;107878;1275;24194;-45
2023/05/25 07:39:22;;;;;;;4.80;3.50;;;;;;;23.27;72.73;100048.88;108930;1273;22542;-44
2023/05/25 07:42:11;;;;;;;6.70;3.70;;;;;;;23.21;71.48;100046.20;108854;1273;22650;-39
2023/05/25 07:45:05;;;;;;;6.60;3.50;;;;;;;23.18;71.79;100046.53;107950;1278;26546;-45
2023/05/25 07:47:58;;;;;;;5.00;3.20;;;;;;;23.12;71.81;100047.27;108912;1280;22555;-39
2023/05/25 07:51:02;;;;;;;6.20;3.70;;;;;;;23.10;72.05;100043.65;109108;1273;22390;-45
2023/05/25 07:53:36;;;;;;;6.90;3.40;;;;;;;23.08;71.84;100041.42;109379;1276;22638;-41
2023/05/25 07:56:22;;;;;;;4.90;3.50;;;;;;;23.06;70.99;100042.39;109282;1278;23429;-46
2023/05/25 07:59:09;;;;;;;4.30;3.30;;;;;;;23.12;71.46;100039.59;109338;1275;22207;-39
2023/05/25 08:05:56;;;;;;;6.70;3.30;;;;;;;23.50;70.27;100034.59;109448;1272;22499;-45
2023/05/25 08:09:42;;;;;;;7.40;3.50;;;;;;;23.81;69.23;100031.92;109011;1273;22617;-38
2023/05/25 08:13:12;;;;;;;8.70;3.80;;;;;;;24.12;68.20;100029.54;108870;1273;22526;-39
2023/05/25 08:16:47;;;;;;;7.80;4.00;;;;;;;24.43;66.85;100025.54;109183;1265;23441;-45
2023/05/25 08:19:33;;;;;;;8.30;3.80;;;;;;;24.64;65.86;100016.23;108297;1272;22702;-40
2023/05/25 08:22:44;;;;;;;8.20;4.30;;;;;;;24.69;64.63;100011.08;109142;1275;22544;-39
2023/05/25 08:25:18;;;;;;;6.40;3.30;;;;;;;24.74;63.70;100005.64;108901;1279;22346;-46
2023/05/25 08:27:49;;;;;;;8.90;3.80;;;;;;;24.82;62.89;100006.89;109288;1278;22761;-46
2023/05/25 08:30:22;;;;;;;7.70;3.70;;;;;;;24.82;63.73;100003.50;109167;1278;22418;-38
2023/05/25 08:32:50;;;;;;;5.60;4.30;;;;;;;24.86;64.06;99999.64;108325;1278;22542;-39
2023/05/25 08:35:19;;;;;;;10.20;4.40;;;;;;;24.90;64.05;100000.27;109351;1272;22550;-41
2023/05/25 08:37:49;;;;;;;6.80;3.70;;;;;;;24.84;63.18;99996.96;109120;1273;22744;-39
2023/05/25 08:40:21;;;;;;;5.50;3.40;;;;;;;24.76;62.54;99996.38;108607;1273;22368;-41
2023/05/25 08:42:50;;;;;;;9.80;3.90;;;;;;;24.78;61.83;100001.64;109438;1267;22350;-46
2023/05/25 08:45:58;;;;;;;7.10;3.90;;;;;;;24.81;61.05;99995.70;108803;1275;22554;-44
2023/05/25 08:48:39;;;;;;;8.50;4.30;;;;;;;25.02;61.15;99991.90;109321;1269;23275;-40
2023/05/25 08:51:56;;;;;;;13.00;3.70;;;;;;;25.39;60.38;99990.75;109451;1279;22429;-39
2023/05/25 08:54:33;;;;;;;12.00;3.90;;;;;;;25.64;59.15;99984.58;109602;1273;22389;-39
2023/05/25 08:57:38;;;;;;;8.00;3.20;;;;;;;25.89;58.34;99985.07;109436;1272;23266;-45
2023/05/25 09:05:07;;;;;;;9.00;3.60;;;;;;;25.90;56.82;99986.43;109757;1276;23084;-45
2023/05/25 09:08:38;;;;;;;11.30;3.10;;;;;;;25.26;59.90;99997.09;109730;1270;22434;-40
2023/05/25 09:12:55;;;;;;;9.70;3.80;;;;;;;24.50;63.12;100004.27;109641;1275;23398;-39
2023/05/25 09:16:08;;;;;;;14.20;4.00;;;;;;;23.74;68.13;100006.18;109634;1274;22404;-45
2023/05/25 09:18:40;;;;;;;7.60;3.50;;;;;;;23.33;70.75;100014.58;109073;1276;22512;-46
2023/05/25 09:21:32;;;;;;;8.70;3.80;;;;;;;23.00;73.44;100024.10;109439;1272;22610;-45
2023/05/25 09:24:21;;;;;;;;;;;;;;;22.69;76.77;100027.91;109660;1273;22518;-45
2023/05/25 09:27:23;;;;;;;8.50;3.70;;;;;;;22.45;78.46;100027.23;109512;1272;22442;-45
2023/05/25 09:30:31;;;;;;;5.80;3.30;;;;;;;22.30;78.19;100026.98;109686;1273;22457;-49
2023/05/25 09:33:24;;;;;;;12.10;3.80;;;;;;;22.16;76.43;100033.75;109379;1273;23308;-44
2023/05/25 09:36:43;;;;;;;8.60;3.00;;;;;;;22.05;75.30;100042.08;109228;1278;22399;-39
2023/05/25 09:39:48;;;;;;;4.90;2.10;;;;;;;21.96;75.25;100039.38;109640;1275;22308;-44
2023/05/25 09:42:34;;;;;;;4.90;2.70;;;;;;;21.76;72.89;100035.59;109355;1276;22292;-46
2023/05/25 09:45:21;;;;;;;6.70;3.60;;;;;;;21.59;72.24;100039.45;109266;1276;22201;-46
2023/05/25 09:48:31;;;;;;;11.80;4.40;;;;;;;21.48;74.34;100042.79;108857;1277;22567;-38
2023/05/25 09:51:32;;;;;;;13.10;5.10;;;;;;;21.40;77.04;100044.60;109688;1275;23325;-39
2023/05/25 09:54:23;;;;;;;10.10;6.50;;;;;;;21.31;79.89;100037.80;109154;1275;22440;-45
2023/05/25 09:56:51;;;;;;;13.80;6.20;;;;;;;21.22;80.52;100035.52;109655;1278;22349;-46
2023/05/25 09:59:18;;;;;;;8.50;5.20;;;;;;;21.16;80.67;100041.15;109623;1279;22387;-46
2023/05/25 10:01:49;;;;;;;11.80;5.10;;;;;;;21.10;81.85;100036.46;109555;1274;22844;-39
2023/05/25 10:04:17;;;;;;;12.80;5.70;;;;;;;21.07;83.68;100034.31;109650;1280;22786;-39
2023/05/25 10:06:45;;;;;;;12.20;6.20;;;;;;;21.01;85.23;100030.14;108535;1276;25931;-45
2023/05/25 10:09:14;;;;;;;13.90;6.50;;;;;;;20.94;86.17;100034.39;109703;1275;23096;-45
2023/05/25 10:11:41;;;;;;;13.20;6.40;;;;;;;20.87;87.06;100038.23;109397;1278;22288;-40
2023/05/25 10:14:09;;;;;;;13.90;5.60;;;;;;;20.82;87.50;100038.14;109783;1276;22351;-38
2023/05/25 10:16:37;;;;;;;16.80;5.20;;;;;;;20.80;87.78;100039.45;109297;1274;22425;-49
2023/05/25 10:19:17;;;;;;;9.00;5.80;;;;;;;20.79;87.88;100033.70;108501;1275;22390;-45
2023/05/25 10:21:50;;;;;;;9.70;5.20;;;;;;;20.77;87.82;100033.23;109143;1278;23443;-39
2023/05/25 10:24:33;;;;;;;10.60;5.90;;;;;;;20.73;87.65;100028.08;109387;1275;22614;-44
2023/05/25 10:27:03;;;;;;;13.10;6.60;;;;;;;20.70;88.80;100026.46;109731;1275;22314;-44
2023/05/25 10:29:51;;;;;;;16.20;8.50;;;;;;;20.72;90.09;100022.13;109652;1275;23143;-45
2023/05/25 10:32:19;;;;;;;14.70;7.60;;;;;;;20.73;91.57;100020.30;109713;1279;22404;-49
2023/05/25 10:34:46;;;;;;;16.90;6.80;;;;;;;20.74;93.11;100016.67;109459;1273;22466;-40
2023/05/25 10:37:14;;;;;;;18.50;7.80;;;;;;;20.74;94.39;100015.44;108316;1280;22581;-44
2023/05/25 10:39:44;;;;;;;14.60;7.60;;;;;;;20.73;95.49;100013.00;108377;1275;23368;-39
2023/05/25 10:42:12;;;;;;;14.40;7.80;;;;;;;20.71;96.55;100008.31;108657;1273;25897;-39
2023/05/25 10:44:41;;;;;;;16.00;8.40;;;;;;;20.72;97.62;100008.44;108415;1278;22999;-40
2023/05/25 10:47:12;;;;;;;12.60;7.50;;;;;;;20.74;98.75;100005.73;109204;1268;23750;-38
2023/05/25 10:49:53;;;;;;;13.60;6.70;;;;;;;20.74;99.75;100007.84;109410;1276;23296;-45
2023/05/25 10:52:20;;;;;;;13.50;7.70;;;;;;;20.77;100.00;100007.70;109178;1275;22220;-44
2023/05/25 10:54:48;;;;;;;18.40;8.70;;;;;;;20.80;100.00;100005.80;108772;1275;23698;-39
2023/05/25 10:57:20;;;;;;;10.50;7.20;;;;;;;20.81;100.00;100006.46;109607;1274;22410;-39
2023/05/25 10:59:58;;;;;;;16.30;8.30;;;;;;;20.84;100.00;100009.66;109698;1279;22284;-38
2023/05/25 11:02:27;;;;;;;14.30;8.40;;;;;;;20.89;100.00;100007.70;109457;1278;22543;-44
2023/05/25 11:05:26;;;;;;;13.60;6.90;;;;;;;20.91;100.00;100006.70;109520;1280;23084;-43
2023/05/25 11:08:22;;;;;;;21.00;8.70;;;;;;;20.92;100.00;100009.28;109624;1280;22650;-44
2023/05/25 11:10:51;;;;;;;16.30;7.70;;;;;;;20.96;100.00;100005.39;109524;1280;22280;-39
2023/05/25 11:13:20;;;;;;;12.50;7.40;;;;;;;20.98;100.00;100007.59;109625;1280;22767;-44
2023/05/25 11:16:20;;;;;;;13.90;10.60;;;;;;;20.96;100.00;100010.53;109625;1275;22733;-44
2023/05/25 11:18:56;;;;;;;15.80;9.60;;;;;;;20.95;100.00;100011.30;109596;1280;22986;-39
2023/05/25 11:21:27;;;;;;;19.20;10.60;;;;;;;20.88;100.00;100011.79;109564;1280;23340;-39
2023/05/25 11:24:03;;;;;;;20.20;11.90;;;;;;;20.80;100.00;100011.29;109598;1280;22925;-44
2023/05/25 11:26:34;;;;;;;16.90;10.40;;;;;;;20.77;100.00;100001.36;109780;1280;22267;-39
2023/05/25 11:29:11;;;;;;;19.80;9.10;;;;;;;20.80;100.00;99999.41;109861;1280;22232;-39
2023/05/25 11:31:39;;;;;;;12.30;8.00;;;;;;;20.88;100.00;99992.48;109834;1280;22253;-39
2023/05/25 11:34:10;;;;;;;12.60;7.80;;;;;;;20.95;100.00;99991.44;109768;1280;22517;-39
2023/05/25 11:36:38;;;;;;;9.80;7.30;;;;;;;21.01;100.00;99988.47;109827;1280;23204;-44
2023/05/25 11:39:06;;;;;;;12.00;6.80;;;;;;;21.09;100.00;99989.69;109919;1280;22231;-41
2023/05/25 11:42:00;;;;;;;15.80;7.70;;;;;;;21.18;100.00;99987.48;110012;1280;22281;-45
2023/05/25 11:44:30;;;;;;;14.50;6.60;;;;;;;21.29;100.00;99985.02;110033;1280;22137;-44
2023/05/25 11:47:00;;;;;;;10.30;6.10;;;;;;;21.40;100.00;99983.06;109692;1279;22356;-39
2023/05/25 11:49:28;;;;;;;10.50;6.30;;;;;;;21.54;100.00;99977.03;109945;1280;22231;-43
2023/05/25 11:51:56;;;;;;;11.10;4.50;;;;;;;21.66;99.87;99981.59;109923;1279;22284;-44
2023/05/25 11:54:27;;;;;;;10.80;5.60;;;;;;;21.72;97.93;99982.33;109938;1280;22854;-43
2023/05/25 11:56:58;;;;;;;8.30;4.00;;;;;;;21.79;96.56;99983.39;109552;1280;22229;-39
2023/05/25 11:59:27;;;;;;;12.40;5.30;;;;;;;21.88;92.66;99988.25;110039;1279;23088;-45
2023/05/25 12:01:59;;;;;;;12.30;4.50;;;;;;;21.95;89.76;99990.75;109768;1280;22524;-44
2023/05/25 12:04:28;;;;;;;11.10;4.90;;;;;;;22.00;87.64;99989.77;108244;1279;25333;-45
2023/05/25 12:07:05;;;;;;;8.20;4.20;;;;;;;22.05;84.57;99991.13;107660;1280;24429;-40
2023/05/25 12:09:33;;;;;;;13.80;4.40;;;;;;;22.09;83.44;99988.64;110030;1280;22182;-39
2023/05/25 12:12:05;;;;;;;8.10;4.50;;;;;;;22.12;82.60;99985.30;108939;1280;22598;-39
2023/05/25 12:14:34;;;;;;;6.00;3.80;;;;;;;22.15;82.35;99979.96;108943;1279;22300;-39
2023/05/25 12:17:02;;;;;;;8.40;3.80;;;;;;;22.20;83.17;99977.05;108200;1280;25488;-38
2023/05/25 12:19:30;;;;;;;8.30;4.20;;;;;;;22.25;83.06;99982.28;107756;1280;23051;-43
2023/05/25 12:21:58;;;;;;;10.70;5.10;;;;;;;22.31;81.69;99983.40;109922;1280;23063;-38
2023/05/25 12:24:25;;;;;;;9.70;4.30;;;;;;;22.37;81.07;99991.42;108840;1279;22536;-43
2023/05/25 12:26:58;;;;;;;13.20;4.40;;;;;;;22.44;80.31;100001.34;108680;1279;22359;-44
2023/05/25 12:29:25;;;;;;;6.50;3.30;;;;;;;22.51;79.63;100005.96;109994;1280;22291;-38
2023/05/25 12:32:01;;;;;;;7.10;4.10;;;;;;;22.58;80.09;100011.44;109522;1280;22295;-38
2023/05/25 12:34:28;;;;;;;5.70;3.90;;;;;;;22.67;79.79;100019.67;110011;1280;22935;-39
2023/05/25 12:36:56;;;;;;;8.50;4.10;;;;;;;22.73;78.95;100017.92;109880;1280;23102;-44